This is the latest recevied weather packets stored in our database for station/object KF7SOJ. If no packets are shown the sender has not sent any weather packets the latest 10 day(s).
| Time | Temp. | Humidity | Pressure | Rain* | Wind** | Luminosity | Snow |
|---|---|---|---|---|---|---|---|
| 1777505105 | 15° C | 24% | 936.4 hPa | 0 mm | - | 453 W/m² | - |
| 1777504802 | 14.44° C | 27% | 936.5 hPa | 0 mm | - | 510 W/m² | - |
| 1777504499 | 14.44° C | 26% | 936.4 hPa | 0 mm | - | 415 W/m² | - |
| 1777504195 | 15° C | 27% | 936.4 hPa | 0 mm | - | 541 W/m² | - |
| 1777503890 | 15° C | 26% | 936.5 hPa | 0 mm | - | 573 W/m² | - |
| 1777503586 | 14.44° C | 27% | 936.3 hPa | 0 mm | - | 600 W/m² | - |
| 1777503284 | 13.33° C | 28% | 936.5 hPa | 0 mm | - | 596 W/m² | - |
| 1777502980 | 13.89° C | 27% | 936.5 hPa | 0 mm | - | 151 W/m² | - |
| 1777502678 | 15° C | 27% | 936.5 hPa | 0 mm | - | 455 W/m² | - |
| 1777502374 | 14.44° C | 28% | 936.5 hPa | 0 mm | - | 702 W/m² | - |
| 1777502071 | 15° C | 27% | 936.2 hPa | 0 mm | - | 705 W/m² | - |
| 1777501768 | 15° C | 28% | 936.3 hPa | 0 mm | - | 703 W/m² | - |
| 1777501466 | 14.44° C | 29% | 936.4 hPa | 0 mm | - | 692 W/m² | - |
| 1777501162 | 14.44° C | 28% | 936.5 hPa | 0 mm | - | 691 W/m² | - |
| 1777500861 | 14.44° C | 29% | 936.6 hPa | 0 mm | - | 703 W/m² | - |
| 1777500558 | 14.44° C | 30% | 936.5 hPa | 0 mm | - | 769 W/m² | - |
| 1777500254 | 13.33° C | 32% | 936.6 hPa | 0 mm | - | 213 W/m² | - |
| 1777499951 | 13.89° C | 30% | 936.6 hPa | 0 mm | - | 176 W/m² | - |
| 1777499647 | 14.44° C | 31% | 936.6 hPa | 0 mm | - | 789 W/m² | - |
| 1777499344 | 13.89° C | 34% | 936.7 hPa | 0 mm | - | 826 W/m² | - |
| 1777499043 | 13.89° C | 31% | 936.7 hPa | 0 mm | - | 211 W/m² | - |
| 1777498738 | 15° C | 30% | 936.6 hPa | 0 mm | - | 904 W/m² | - |
| 1777498435 | 14.44° C | 31% | 936.6 hPa | 0 mm | - | 888 W/m² | - |
| 1777498132 | 13.33° C | 32% | 936.7 hPa | 0 mm | - | 317 W/m² | - |
| 1777497829 | 13.33° C | 32% | 936.8 hPa | 0 mm | - | 172 W/m² | - |
* Rain latest hour (hover to see other rain measurements)
** Current wind speed in m/s (hover to see current wind gust speed)